CSH9312 ZGGG-ZSSS
Flight info
| Callsign | CSH9312 |
|---|---|
| Flight time | 1h 30m |
| Altitude | 35100 |
| Route | BOVMA DCT PLT A599 ELNEX G204 MULOV V73 SUPAR |
| Aircraft | B738/M-SDE2E3FGHIRWXY/LB1 |
Departure
| Time | 2026-05-04 02:50 |
|---|---|
| Airport | Guangzhou Baiyun International Airport (ZGGG) |
Arrival
| Time | 2026-05-04 04:20 |
|---|---|
| Airport | Shanghai Hongqiao International Airport (ZSSS) |
| Time | Latitude | Longitude | Altitude | Speed | Heading |
|---|---|---|---|---|---|
| 2026-05-04 02:05 | 32.00000 | 55.00000 | 215 ft | 93 kts | 0° |
| 2026-05-04 02:06 | 23.39281 | 113.29459 | 54 ft | 0 kts | 13° |
| 2026-05-04 02:06 | 32.00000 | 55.00000 | 215 ft | 93 kts | 0° |
| 2026-05-04 02:07 | 23.39281 | 113.29459 | 54 ft | 0 kts | 13° |
| 2026-05-04 02:07 | 32.00000 | 55.00000 | 215 ft | 93 kts | 0° |
| 2026-05-04 02:08 | 23.39281 | 113.29459 | 54 ft | 0 kts | 13° |
| 2026-05-04 02:08 | 32.00000 | 55.00000 | 215 ft | 93 kts | 0° |
| 2026-05-04 02:09 | 23.39281 | 113.29459 | 54 ft | 0 kts | 13° |
| 2026-05-04 02:33 | 23.39271 | 113.29456 | 54 ft | 2 kts | 13° |
| 2026-05-04 02:34 | 23.39257 | 113.29452 | 54 ft | 2 kts | 14° |
| 2026-05-04 02:34 | 23.39242 | 113.29448 | 54 ft | 2 kts | 13° |
| 2026-05-04 02:34 | 23.39228 | 113.29444 | 54 ft | 2 kts | 14° |
| 2026-05-04 02:34 | 23.39213 | 113.29440 | 54 ft | 2 kts | 14° |
| 2026-05-04 02:35 | 23.39199 | 113.29436 | 54 ft | 2 kts | 13° |
| 2026-05-04 02:35 | 23.39185 | 113.29433 | 54 ft | 1 kts | 14° |
| 2026-05-04 02:35 | 23.39177 | 113.29431 | 54 ft | 1 kts | 344° |
| 2026-05-04 02:35 | 23.39167 | 113.29439 | 54 ft | 1 kts | 285° |
| 2026-05-04 02:36 | 23.39167 | 113.29446 | 54 ft | 1 kts | 263° |
| 2026-05-04 02:36 | 23.39167 | 113.29451 | 54 ft | 0 kts | 270° |
| 2026-05-04 02:38 | 23.39167 | 113.29446 | 54 ft | 2 kts | 270° |
| 2026-05-04 02:38 | 23.39168 | 113.29414 | 54 ft | 6 kts | 272° |
| 2026-05-04 02:38 | 23.39170 | 113.29346 | 54 ft | 9 kts | 271° |
| 2026-05-04 02:39 | 23.39171 | 113.29292 | 54 ft | 6 kts | 271° |
| 2026-05-04 02:39 | 23.39172 | 113.29239 | 54 ft | 9 kts | 271° |
| 2026-05-04 02:39 | 23.39173 | 113.29153 | 54 ft | 11 kts | 266° |
| 2026-05-04 02:39 | 23.39169 | 113.29131 | 54 ft | 0 kts | 255° |
| 2026-05-04 02:40 | 23.39167 | 113.29127 | 54 ft | 3 kts | 237° |
| 2026-05-04 02:40 | 23.39111 | 113.29104 | 54 ft | 11 kts | 193° |
| 2026-05-04 02:40 | 23.39032 | 113.29083 | 54 ft | 11 kts | 194° |
| 2026-05-04 02:40 | 23.38938 | 113.29057 | 54 ft | 16 kts | 194° |
| 2026-05-04 02:41 | 23.38821 | 113.29025 | 54 ft | 18 kts | 194° |
| 2026-05-04 02:41 | 23.38685 | 113.28989 | 54 ft | 21 kts | 194° |
| 2026-05-04 02:41 | 23.38604 | 113.28967 | 54 ft | 9 kts | 193° |
| 2026-05-04 02:41 | 23.38525 | 113.28946 | 54 ft | 14 kts | 194° |
| 2026-05-04 02:42 | 23.38418 | 113.28917 | 54 ft | 15 kts | 193° |
| 2026-05-04 02:42 | 23.38315 | 113.28889 | 54 ft | 15 kts | 194° |
| 2026-05-04 02:42 | 23.38230 | 113.28866 | 54 ft | 12 kts | 194° |
| 2026-05-04 02:42 | 23.38145 | 113.28843 | 54 ft | 11 kts | 193° |
| 2026-05-04 02:43 | 23.38101 | 113.28841 | 54 ft | 5 kts | 165° |
| 2026-05-04 02:43 | 23.38075 | 113.28863 | 54 ft | 4 kts | 115° |
| 2026-05-04 02:43 | 23.38062 | 113.28906 | 54 ft | 9 kts | 104° |
| 2026-05-04 02:43 | 23.38041 | 113.28999 | 54 ft | 15 kts | 104° |
| 2026-05-04 02:44 | 23.38010 | 113.29133 | 54 ft | 19 kts | 103° |
| 2026-05-04 02:44 | 23.37974 | 113.29291 | 54 ft | 23 kts | 103° |
| 2026-05-04 02:44 | 23.37940 | 113.29468 | 54 ft | 24 kts | 104° |
| 2026-05-04 02:44 | 23.37894 | 113.29649 | 54 ft | 26 kts | 104° |
| 2026-05-04 02:45 | 23.37848 | 113.29843 | 54 ft | 26 kts | 103° |
| 2026-05-04 02:45 | 23.37807 | 113.30017 | 55 ft | 15 kts | 104° |
| 2026-05-04 02:45 | 23.37782 | 113.30125 | 55 ft | 13 kts | 103° |
| 2026-05-04 02:45 | 23.37747 | 113.30192 | 55 ft | 7 kts | 152° |
| 2026-05-04 02:46 | 23.37700 | 113.30217 | 55 ft | 8 kts | 154° |
| 2026-05-04 02:46 | 23.37649 | 113.30252 | 55 ft | 8 kts | 128° |
| 2026-05-04 02:46 | 23.37628 | 113.30305 | 55 ft | 7 kts | 104° |
| 2026-05-04 02:46 | 23.37616 | 113.30357 | 55 ft | 6 kts | 104° |
| 2026-05-04 02:47 | 23.37606 | 113.30402 | 55 ft | 5 kts | 103° |
| 2026-05-04 02:47 | 23.37597 | 113.30442 | 55 ft | 5 kts | 103° |
| 2026-05-04 02:47 | 23.37586 | 113.30492 | 55 ft | 9 kts | 103° |
| 2026-05-04 02:47 | 23.37602 | 113.30540 | 55 ft | 7 kts | 20° |
| 2026-05-04 02:48 | 23.37615 | 113.30544 | 55 ft | 0 kts | 13° |
| 2026-05-04 02:48 | 23.37648 | 113.30553 | 55 ft | 20 kts | 13° |
| 2026-05-04 02:48 | 23.38017 | 113.30653 | 55 ft | 85 kts | 14° |
| 2026-05-04 02:49 | 23.38777 | 113.30858 | 55 ft | 138 kts | 15° |
| 2026-05-04 02:49 | 23.39827 | 113.31146 | 206 ft | 163 kts | 15° |
| 2026-05-04 02:49 | 23.40956 | 113.31467 | 486 ft | 173 kts | 16° |
| 2026-05-04 02:49 | 23.42166 | 113.31838 | 546 ft | 186 kts | 16° |
| 2026-05-04 02:50 | 23.43457 | 113.32241 | 706 ft | 210 kts | 16° |
| 2026-05-04 02:50 | 23.44684 | 113.32621 | 1769 ft | 169 kts | 18° |
| 2026-05-04 02:50 | 23.45819 | 113.33050 | 1912 ft | 178 kts | 22° |
| 2026-05-04 02:50 | 23.47102 | 113.33486 | 2283 ft | 200 kts | 13° |
| 2026-05-04 02:51 | 23.48473 | 113.33799 | 2799 ft | 212 kts | 15° |
| 2026-05-04 02:51 | 23.49985 | 113.34229 | 3324 ft | 228 kts | 16° |
| 2026-05-04 02:51 | 23.51540 | 113.34673 | 3786 ft | 246 kts | 16° |
| 2026-05-04 02:51 | 23.53266 | 113.35154 | 4422 ft | 257 kts | 15° |
| 2026-05-04 02:52 | 23.54923 | 113.35608 | 5563 ft | 245 kts | 13° |
| 2026-05-04 02:52 | 23.56635 | 113.36020 | 6112 ft | 259 kts | 8° |
| 2026-05-04 02:52 | 23.58407 | 113.36338 | 6919 ft | 258 kts | 7° |
| 2026-05-04 02:52 | 23.60163 | 113.36697 | 7651 ft | 263 kts | 12° |
| 2026-05-04 02:53 | 23.61849 | 113.37631 | 8120 ft | 282 kts | 40° |
| 2026-05-04 02:53 | 23.63103 | 113.39191 | 9207 ft | 270 kts | 53° |
| 2026-05-04 02:53 | 23.63975 | 113.41032 | 9541 ft | 292 kts | 74° |
| 2026-05-04 02:53 | 23.64388 | 113.43243 | 10083 ft | 300 kts | 79° |
| 2026-05-04 02:54 | 23.64821 | 113.45527 | 10471 ft | 317 kts | 77° |
| 2026-05-04 02:54 | 23.65345 | 113.47921 | 10786 ft | 334 kts | 76° |
| 2026-05-04 02:54 | 23.65878 | 113.50417 | 11439 ft | 341 kts | 77° |
| 2026-05-04 02:54 | 23.66421 | 113.53000 | 11581 ft | 364 kts | 77° |
| 2026-05-04 02:55 | 23.67617 | 113.58615 | 12134 ft | 398 kts | 76° |
| 2026-05-04 02:55 | 23.68251 | 113.61630 | 12556 ft | 410 kts | 77° |
| 2026-05-04 02:55 | 23.68868 | 113.64632 | 13284 ft | 411 kts | 77° |
| 2026-05-04 02:56 | 23.69501 | 113.67697 | 13680 ft | 422 kts | 77° |
| 2026-05-04 02:56 | 23.70182 | 113.70860 | 14367 ft | 423 kts | 77° |
| 2026-05-04 02:56 | 23.70846 | 113.73948 | 15094 ft | 423 kts | 77° |
| 2026-05-04 02:56 | 23.71505 | 113.77098 | 15468 ft | 433 kts | 77° |
| 2026-05-04 02:57 | 23.72149 | 113.80272 | 16192 ft | 432 kts | 78° |
| 2026-05-04 02:57 | 23.72815 | 113.83546 | 16613 ft | 441 kts | 78° |
| 2026-05-04 02:57 | 23.73483 | 113.86777 | 17272 ft | 440 kts | 77° |
| 2026-05-04 02:57 | 23.74170 | 113.90076 | 17646 ft | 448 kts | 77° |
| 2026-05-04 02:58 | 23.74861 | 113.93356 | 18309 ft | 448 kts | 77° |
| 2026-05-04 02:58 | 23.75567 | 113.96690 | 18621 ft | 457 kts | 77° |
| 2026-05-04 02:58 | 23.76286 | 114.00091 | 18811 ft | 467 kts | 77° |
| 2026-05-04 02:58 | 23.77010 | 114.03556 | 18813 ft | 465 kts | 77° |
| 2026-05-04 02:59 | 23.77703 | 114.06922 | 18810 ft | 457 kts | 78° |
| 2026-05-04 02:59 | 23.78388 | 114.10308 | 18808 ft | 458 kts | 77° |
| 2026-05-04 02:59 | 23.79076 | 114.13738 | 18807 ft | 459 kts | 77° |
| 2026-05-04 02:59 | 23.79767 | 114.17123 | 18804 ft | 460 kts | 77° |
| 2026-05-04 03:00 | 23.80477 | 114.20517 | 18799 ft | 461 kts | 77° |
| 2026-05-04 03:00 | 23.81315 | 114.23901 | 18796 ft | 459 kts | 70° |
| 2026-05-04 03:00 | 23.82610 | 114.27065 | 18800 ft | 456 kts | 58° |
| 2026-05-04 03:00 | 23.84479 | 114.29848 | 18801 ft | 452 kts | 43° |
| 2026-05-04 03:01 | 23.86809 | 114.32073 | 18810 ft | 449 kts | 33° |
| 2026-05-04 03:01 | 23.89342 | 114.34096 | 18807 ft | 449 kts | 32° |
| 2026-05-04 03:01 | 23.91853 | 114.36124 | 18808 ft | 449 kts | 32° |
| 2026-05-04 03:01 | 23.94355 | 114.38196 | 18811 ft | 449 kts | 33° |
| 2026-05-04 03:02 | 23.96838 | 114.40279 | 18813 ft | 449 kts | 33° |
| 2026-05-04 03:02 | 23.99328 | 114.42351 | 18814 ft | 449 kts | 33° |
| 2026-05-04 03:02 | 24.01807 | 114.44390 | 18806 ft | 447 kts | 33° |
| 2026-05-04 03:02 | 24.04301 | 114.46419 | 18811 ft | 448 kts | 32° |
| 2026-05-04 03:03 | 24.06813 | 114.48462 | 18815 ft | 449 kts | 33° |
| 2026-05-04 03:03 | 24.09323 | 114.50523 | 18812 ft | 449 kts | 33° |
| 2026-05-04 03:03 | 24.11807 | 114.52582 | 18822 ft | 449 kts | 33° |
| 2026-05-04 03:03 | 24.14307 | 114.54662 | 18820 ft | 450 kts | 33° |
| 2026-05-04 03:04 | 24.16779 | 114.56708 | 18816 ft | 449 kts | 33° |
| 2026-05-04 03:04 | 24.19303 | 114.58789 | 18819 ft | 449 kts | 33° |
| 2026-05-04 03:04 | 24.21792 | 114.60841 | 18818 ft | 449 kts | 33° |
| 2026-05-04 03:04 | 24.24280 | 114.62888 | 18821 ft | 448 kts | 33° |
| 2026-05-04 03:05 | 24.26776 | 114.64939 | 19300 ft | 449 kts | 33° |
| 2026-05-04 03:05 | 24.29280 | 114.67004 | 19763 ft | 452 kts | 33° |
| 2026-05-04 03:05 | 24.31822 | 114.69100 | 20168 ft | 457 kts | 32° |
| 2026-05-04 03:05 | 24.34351 | 114.71186 | 20612 ft | 460 kts | 32° |
| 2026-05-04 03:06 | 24.36920 | 114.73299 | 20936 ft | 466 kts | 32° |
| 2026-05-04 03:06 | 24.39494 | 114.75427 | 21442 ft | 467 kts | 32° |
| 2026-05-04 03:06 | 24.42135 | 114.77615 | 21685 ft | 474 kts | 32° |
| 2026-05-04 03:06 | 24.44753 | 114.79791 | 22167 ft | 475 kts | 32° |
| 2026-05-04 03:07 | 24.47394 | 114.81978 | 22614 ft | 476 kts | 32° |
| 2026-05-04 03:07 | 24.50052 | 114.84173 | 22917 ft | 481 kts | 32° |
| 2026-05-04 03:07 | 24.52720 | 114.86375 | 23204 ft | 485 kts | 32° |
| 2026-05-04 03:07 | 24.55453 | 114.88625 | 23570 ft | 487 kts | 32° |
| 2026-05-04 03:08 | 24.58190 | 114.90768 | 23963 ft | 487 kts | 28° |
| 2026-05-04 03:08 | 24.61156 | 114.92557 | 24221 ft | 483 kts | 16° |
| 2026-05-04 03:08 | 24.64350 | 114.93637 | 24723 ft | 474 kts | 7° |
| 2026-05-04 03:08 | 24.67518 | 114.94421 | 25409 ft | 467 kts | 6° |
| 2026-05-04 03:09 | 24.70713 | 114.95222 | 25546 ft | 476 kts | 7° |
| 2026-05-04 03:09 | 24.73959 | 114.96081 | 25855 ft | 480 kts | 7° |
| 2026-05-04 03:09 | 24.77246 | 114.96960 | 26047 ft | 486 kts | 7° |
| 2026-05-04 03:09 | 24.80494 | 114.97804 | 26592 ft | 483 kts | 6° |
| 2026-05-04 03:10 | 24.83784 | 114.98621 | 26914 ft | 485 kts | 5° |
| 2026-05-04 03:10 | 24.87133 | 114.99428 | 27115 ft | 490 kts | 5° |
| 2026-05-04 03:10 | 24.90444 | 115.00232 | 27801 ft | 483 kts | 5° |
| 2026-05-04 03:10 | 24.93717 | 115.01028 | 27953 ft | 490 kts | 5° |
| 2026-05-04 03:11 | 24.97079 | 115.01853 | 28357 ft | 491 kts | 5° |
| 2026-05-04 03:11 | 25.03799 | 115.03522 | 28907 ft | 497 kts | 5° |
| 2026-05-04 03:11 | 25.07202 | 115.04376 | 29165 ft | 500 kts | 4° |
| 2026-05-04 03:12 | 25.10606 | 115.05217 | 29417 ft | 503 kts | 4° |
| 2026-05-04 03:12 | 25.14007 | 115.06054 | 30186 ft | 494 kts | 4° |
| 2026-05-04 03:12 | 25.17353 | 115.06869 | 30297 ft | 500 kts | 4° |
| 2026-05-04 03:12 | 25.20769 | 115.07688 | 30688 ft | 499 kts | 4° |
| 2026-05-04 03:13 | 25.24158 | 115.08503 | 31013 ft | 500 kts | 4° |
| 2026-05-04 03:13 | 25.27579 | 115.09317 | 31157 ft | 504 kts | 2° |
| 2026-05-04 03:13 | 25.31052 | 115.09930 | 31539 ft | 496 kts | 356° |
| 2026-05-04 03:13 | 25.34421 | 115.10014 | 31697 ft | 483 kts | 343° |
| 2026-05-04 03:14 | 25.37610 | 115.09177 | 31916 ft | 463 kts | 329° |
| 2026-05-04 03:14 | 25.40592 | 115.07871 | 32452 ft | 453 kts | 326° |
| 2026-05-04 03:14 | 25.43469 | 115.06467 | 32651 ft | 454 kts | 325° |
| 2026-05-04 03:14 | 25.46350 | 115.05038 | 32971 ft | 454 kts | 325° |
| 2026-05-04 03:15 | 25.49210 | 115.03643 | 33779 ft | 444 kts | 325° |
| 2026-05-04 03:15 | 25.52023 | 115.02266 | 33919 ft | 448 kts | 324° |
| 2026-05-04 03:15 | 25.54859 | 115.00841 | 34300 ft | 446 kts | 324° |
| 2026-05-04 03:15 | 25.57648 | 114.99423 | 34920 ft | 439 kts | 324° |
| 2026-05-04 03:16 | 25.60433 | 114.97996 | 35032 ft | 443 kts | 324° |
| 2026-05-04 03:16 | 25.63229 | 114.96557 | 35225 ft | 445 kts | 324° |
| 2026-05-04 03:16 | 25.66086 | 114.95088 | 35239 ft | 451 kts | 324° |
| 2026-05-04 03:16 | 25.69017 | 114.93778 | 35232 ft | 465 kts | 331° |
| 2026-05-04 03:17 | 25.72201 | 114.92895 | 35235 ft | 480 kts | 340° |
| 2026-05-04 03:17 | 25.75569 | 114.92539 | 35230 ft | 491 kts | 349° |
| 2026-05-04 03:17 | 25.79024 | 114.92806 | 35229 ft | 502 kts | 360° |
| 2026-05-04 03:17 | 25.82462 | 114.93735 | 35240 ft | 515 kts | 10° |
| 2026-05-04 03:18 | 25.85780 | 114.95275 | 35237 ft | 528 kts | 20° |
| 2026-05-04 03:18 | 25.88915 | 114.97486 | 35228 ft | 542 kts | 33° |
| 2026-05-04 03:18 | 25.91687 | 115.00353 | 35241 ft | 552 kts | 42° |
| 2026-05-04 03:19 | 25.96879 | 115.06675 | 35230 ft | 554 kts | 42° |
| 2026-05-04 03:19 | 26.02199 | 115.12865 | 35229 ft | 550 kts | 41° |
| 2026-05-04 03:20 | 26.07421 | 115.19010 | 35225 ft | 550 kts | 42° |
| 2026-05-04 03:20 | 26.12634 | 115.25278 | 35226 ft | 552 kts | 42° |
| 2026-05-04 03:21 | 26.17878 | 115.31534 | 35229 ft | 555 kts | 42° |
| 2026-05-04 03:21 | 26.23117 | 115.37806 | 35233 ft | 555 kts | 42° |
| 2026-05-04 03:22 | 26.28352 | 115.44105 | 35240 ft | 554 kts | 42° |
| 2026-05-04 03:22 | 26.33612 | 115.50426 | 35239 ft | 555 kts | 42° |
| 2026-05-04 03:23 | 26.38863 | 115.56678 | 35236 ft | 555 kts | 41° |
| 2026-05-04 03:23 | 26.44141 | 115.62934 | 35235 ft | 555 kts | 41° |
| 2026-05-04 03:24 | 26.49406 | 115.69237 | 35233 ft | 555 kts | 42° |
| 2026-05-04 03:24 | 26.54616 | 115.75551 | 35235 ft | 556 kts | 43° |
| 2026-05-04 03:25 | 26.59835 | 115.81941 | 35237 ft | 556 kts | 43° |
| 2026-05-04 03:25 | 26.65084 | 115.88303 | 35236 ft | 556 kts | 42° |
| 2026-05-04 03:26 | 26.70340 | 115.94610 | 35236 ft | 558 kts | 41° |
| 2026-05-04 03:26 | 26.75616 | 116.00983 | 35233 ft | 558 kts | 42° |
| 2026-05-04 03:27 | 26.80835 | 116.07377 | 35234 ft | 557 kts | 42° |
| 2026-05-04 03:27 | 26.86057 | 116.13747 | 35240 ft | 557 kts | 42° |
| 2026-05-04 03:28 | 26.91289 | 116.20158 | 35241 ft | 559 kts | 42° |
| 2026-05-04 03:28 | 26.96586 | 116.26566 | 35239 ft | 558 kts | 41° |
| 2026-05-04 03:29 | 27.01889 | 116.32852 | 35241 ft | 557 kts | 41° |
| 2026-05-04 03:29 | 27.07185 | 116.39195 | 35239 ft | 558 kts | 41° |
| 2026-05-04 03:30 | 27.12466 | 116.45634 | 35237 ft | 561 kts | 42° |
| 2026-05-04 03:30 | 27.17716 | 116.52050 | 35231 ft | 562 kts | 42° |
| 2026-05-04 03:31 | 27.23025 | 116.58460 | 35230 ft | 558 kts | 40° |
| 2026-05-04 03:31 | 27.28432 | 116.64665 | 35236 ft | 558 kts | 39° |
| 2026-05-04 03:32 | 27.33885 | 116.70930 | 35235 ft | 561 kts | 40° |
| 2026-05-04 03:32 | 27.39287 | 116.77254 | 35231 ft | 563 kts | 40° |
| 2026-05-04 03:33 | 27.44666 | 116.83633 | 35238 ft | 562 kts | 40° |
| 2026-05-04 03:33 | 27.50061 | 116.89928 | 35242 ft | 559 kts | 40° |
| 2026-05-04 03:34 | 27.55466 | 116.96182 | 35248 ft | 559 kts | 40° |
| 2026-05-04 03:34 | 27.60871 | 117.02467 | 35252 ft | 560 kts | 40° |
| 2026-05-04 03:35 | 27.66305 | 117.08785 | 35245 ft | 562 kts | 40° |
| 2026-05-04 03:35 | 27.71772 | 117.15129 | 35249 ft | 562 kts | 40° |
| 2026-05-04 03:36 | 27.77186 | 117.21399 | 35251 ft | 560 kts | 39° |
| 2026-05-04 03:36 | 27.82605 | 117.27676 | 35254 ft | 560 kts | 40° |
| 2026-05-04 03:37 | 27.88047 | 117.34023 | 35255 ft | 563 kts | 40° |
| 2026-05-04 03:37 | 27.93464 | 117.40365 | 35251 ft | 560 kts | 40° |
| 2026-05-04 03:38 | 27.98865 | 117.46697 | 35246 ft | 558 kts | 39° |
| 2026-05-04 03:38 | 28.04269 | 117.53028 | 35241 ft | 561 kts | 40° |
| 2026-05-04 03:39 | 28.09682 | 117.59367 | 35240 ft | 562 kts | 39° |
| 2026-05-04 03:39 | 28.15113 | 117.65732 | 35237 ft | 560 kts | 40° |
| 2026-05-04 03:40 | 28.20531 | 117.72063 | 35237 ft | 562 kts | 40° |
| 2026-05-04 03:40 | 28.25937 | 117.78402 | 35223 ft | 561 kts | 40° |
| 2026-05-04 03:41 | 28.31359 | 117.84767 | 35221 ft | 561 kts | 40° |
| 2026-05-04 03:41 | 28.36756 | 117.91087 | 35223 ft | 559 kts | 40° |
| 2026-05-04 03:42 | 28.42161 | 117.97435 | 35219 ft | 559 kts | 40° |
| 2026-05-04 03:42 | 28.47462 | 118.03935 | 35222 ft | 562 kts | 42° |
| 2026-05-04 03:43 | 28.52688 | 118.10514 | 35233 ft | 561 kts | 42° |
| 2026-05-04 03:43 | 28.57960 | 118.17021 | 35231 ft | 560 kts | 41° |
| 2026-05-04 03:44 | 28.63278 | 118.23513 | 35229 ft | 562 kts | 41° |
| 2026-05-04 03:44 | 28.68570 | 118.30056 | 35230 ft | 562 kts | 42° |
| 2026-05-04 03:45 | 28.73809 | 118.36630 | 35225 ft | 561 kts | 42° |
| 2026-05-04 03:45 | 28.79054 | 118.43166 | 35233 ft | 561 kts | 41° |
| 2026-05-04 03:46 | 28.84336 | 118.49729 | 35226 ft | 563 kts | 42° |
| 2026-05-04 03:46 | 28.89635 | 118.56317 | 35231 ft | 562 kts | 41° |
| 2026-05-04 03:47 | 28.94869 | 118.62826 | 35228 ft | 560 kts | 41° |
| 2026-05-04 03:47 | 29.00150 | 118.69377 | 35227 ft | 561 kts | 42° |
| 2026-05-04 03:48 | 29.05435 | 118.75942 | 35230 ft | 562 kts | 43° |
| 2026-05-04 03:48 | 29.10721 | 118.82519 | 35240 ft | 561 kts | 42° |
| 2026-05-04 03:49 | 29.15977 | 118.89096 | 35238 ft | 562 kts | 43° |
| 2026-05-04 03:49 | 29.21200 | 118.95686 | 35232 ft | 563 kts | 43° |
| 2026-05-04 03:50 | 29.26452 | 119.02378 | 35232 ft | 564 kts | 43° |
| 2026-05-04 03:50 | 29.31666 | 119.08997 | 35233 ft | 562 kts | 43° |
| 2026-05-04 03:51 | 29.36910 | 119.15643 | 35231 ft | 561 kts | 42° |
| 2026-05-04 03:51 | 29.42146 | 119.22277 | 35232 ft | 560 kts | 43° |
| 2026-05-04 03:52 | 29.47349 | 119.28899 | 35236 ft | 561 kts | 43° |
| 2026-05-04 03:52 | 29.52557 | 119.35529 | 35238 ft | 560 kts | 42° |
| 2026-05-04 03:53 | 29.57588 | 119.42342 | 35238 ft | 566 kts | 50° |
| 2026-05-04 03:53 | 29.59670 | 119.46219 | 35244 ft | 570 kts | 62° |
| 2026-05-04 03:53 | 29.61062 | 119.50427 | 35247 ft | 571 kts | 74° |
| 2026-05-04 03:54 | 29.62764 | 119.59347 | 35238 ft | 570 kts | 86° |
| 2026-05-04 03:54 | 29.62758 | 119.68312 | 35246 ft | 561 kts | 97° |
| 2026-05-04 03:55 | 29.62451 | 119.77286 | 35247 ft | 564 kts | 95° |
| 2026-05-04 03:55 | 29.62335 | 119.86279 | 35245 ft | 565 kts | 95° |
| 2026-05-04 03:56 | 29.62174 | 119.95316 | 35238 ft | 567 kts | 95° |
| 2026-05-04 03:56 | 29.61953 | 120.04245 | 35231 ft | 555 kts | 96° |
| 2026-05-04 03:57 | 29.61689 | 120.12989 | 35236 ft | 548 kts | 96° |
| 2026-05-04 03:57 | 29.61435 | 120.21769 | 35237 ft | 552 kts | 96° |
| 2026-05-04 03:58 | 29.61124 | 120.35013 | 35245 ft | 554 kts | 96° |
| 2026-05-04 03:58 | 29.60948 | 120.43855 | 35247 ft | 553 kts | 95° |
| 2026-05-04 03:59 | 29.60727 | 120.52644 | 35246 ft | 552 kts | 96° |
| 2026-05-04 03:59 | 29.60484 | 120.61423 | 35243 ft | 550 kts | 96° |
| 2026-05-04 04:00 | 29.60608 | 120.65791 | 35237 ft | 556 kts | 84° |
| 2026-05-04 04:00 | 29.61504 | 120.70079 | 35238 ft | 561 kts | 69° |
| 2026-05-04 04:00 | 29.64819 | 120.78219 | 35224 ft | 562 kts | 62° |
| 2026-05-04 04:01 | 29.66611 | 120.82169 | 35038 ft | 560 kts | 57° |
| 2026-05-04 04:01 | 29.68843 | 120.85757 | 34469 ft | 552 kts | 44° |
| 2026-05-04 04:01 | 29.71651 | 120.88670 | 33659 ft | 544 kts | 29° |
| 2026-05-04 04:01 | 29.74888 | 120.90871 | 32715 ft | 538 kts | 20° |
| 2026-05-04 04:02 | 29.78268 | 120.92804 | 31700 ft | 542 kts | 20° |
| 2026-05-04 04:02 | 29.81631 | 120.94743 | 30615 ft | 548 kts | 21° |
| 2026-05-04 04:02 | 29.85025 | 120.96764 | 29498 ft | 554 kts | 22° |
| 2026-05-04 04:02 | 29.88387 | 120.98844 | 28673 ft | 552 kts | 23° |
| 2026-05-04 04:03 | 29.91712 | 121.00951 | 27904 ft | 539 kts | 23° |
| 2026-05-04 04:03 | 29.94966 | 121.03036 | 27133 ft | 526 kts | 23° |
| 2026-05-04 04:03 | 29.98098 | 121.05040 | 26342 ft | 514 kts | 24° |
| 2026-05-04 04:03 | 30.01204 | 121.07012 | 25536 ft | 503 kts | 23° |
| 2026-05-04 04:04 | 30.04232 | 121.08918 | 24765 ft | 492 kts | 23° |
| 2026-05-04 04:04 | 30.07187 | 121.10757 | 23999 ft | 481 kts | 22° |
| 2026-05-04 04:04 | 30.10136 | 121.12565 | 23238 ft | 471 kts | 22° |
| 2026-05-04 04:04 | 30.12981 | 121.14291 | 22526 ft | 461 kts | 22° |
| 2026-05-04 04:05 | 30.15806 | 121.16012 | 21831 ft | 452 kts | 23° |
| 2026-05-04 04:05 | 30.18538 | 121.17703 | 21110 ft | 443 kts | 23° |
| 2026-05-04 04:05 | 30.21213 | 121.19384 | 20401 ft | 434 kts | 25° |
| 2026-05-04 04:05 | 30.23760 | 121.21262 | 19669 ft | 430 kts | 33° |
| 2026-05-04 04:06 | 30.25999 | 121.23485 | 18972 ft | 433 kts | 42° |
| 2026-05-04 04:06 | 30.27932 | 121.26157 | 18199 ft | 436 kts | 52° |
| 2026-05-04 04:06 | 30.29591 | 121.29081 | 17458 ft | 435 kts | 55° |
| 2026-05-04 04:06 | 30.31222 | 121.32004 | 16733 ft | 432 kts | 54° |
| 2026-05-04 04:07 | 30.32876 | 121.34885 | 16049 ft | 429 kts | 53° |
| 2026-05-04 04:07 | 30.34668 | 121.37635 | 15302 ft | 422 kts | 43° |
| 2026-05-04 04:07 | 30.36924 | 121.39706 | 14602 ft | 411 kts | 25° |
| 2026-05-04 04:07 | 30.39544 | 121.40891 | 13915 ft | 401 kts | 11° |
| 2026-05-04 04:08 | 30.42249 | 121.41315 | 13239 ft | 392 kts | 358° |
| 2026-05-04 04:08 | 30.44941 | 121.41123 | 12578 ft | 385 kts | 351° |
| 2026-05-04 04:08 | 30.47600 | 121.40792 | 11912 ft | 380 kts | 352° |
| 2026-05-04 04:08 | 30.50227 | 121.40519 | 11216 ft | 376 kts | 353° |
| 2026-05-04 04:09 | 30.52808 | 121.40266 | 10697 ft | 368 kts | 353° |
| 2026-05-04 04:09 | 30.55313 | 121.40012 | 10466 ft | 352 kts | 353° |
| 2026-05-04 04:09 | 30.57681 | 121.39766 | 10323 ft | 335 kts | 353° |
| 2026-05-04 04:09 | 30.59938 | 121.39531 | 10189 ft | 319 kts | 353° |
| 2026-05-04 04:10 | 30.62112 | 121.39302 | 9886 ft | 311 kts | 353° |
| 2026-05-04 04:10 | 30.64254 | 121.39075 | 9471 ft | 306 kts | 353° |
| 2026-05-04 04:10 | 30.66370 | 121.38856 | 9085 ft | 301 kts | 353° |
| 2026-05-04 04:10 | 30.68442 | 121.38644 | 8704 ft | 297 kts | 353° |
| 2026-05-04 04:11 | 30.70483 | 121.38434 | 8301 ft | 291 kts | 353° |
| 2026-05-04 04:11 | 30.72454 | 121.38228 | 7967 ft | 278 kts | 353° |
| 2026-05-04 04:11 | 30.74349 | 121.38030 | 7619 ft | 268 kts | 353° |
| 2026-05-04 04:11 | 30.76160 | 121.37843 | 7287 ft | 258 kts | 353° |
| 2026-05-04 04:12 | 30.77935 | 121.37661 | 6989 ft | 250 kts | 353° |
| 2026-05-04 04:12 | 30.79669 | 121.37478 | 6624 ft | 250 kts | 352° |
| 2026-05-04 04:12 | 30.81387 | 121.37294 | 6321 ft | 247 kts | 353° |
| 2026-05-04 04:12 | 30.83097 | 121.37116 | 6011 ft | 245 kts | 353° |
| 2026-05-04 04:13 | 30.84784 | 121.36942 | 5696 ft | 243 kts | 352° |
| 2026-05-04 04:13 | 30.86447 | 121.36696 | 5390 ft | 241 kts | 349° |
| 2026-05-04 04:13 | 30.88100 | 121.36397 | 5079 ft | 240 kts | 349° |
| 2026-05-04 04:13 | 30.89752 | 121.36111 | 4794 ft | 237 kts | 349° |
| 2026-05-04 04:14 | 30.91363 | 121.35825 | 4605 ft | 231 kts | 347° |
| 2026-05-04 04:14 | 30.92918 | 121.35445 | 4420 ft | 224 kts | 346° |
| 2026-05-04 04:14 | 30.94445 | 121.35145 | 4130 ft | 225 kts | 351° |
| 2026-05-04 04:14 | 30.95992 | 121.34972 | 3931 ft | 221 kts | 353° |
| 2026-05-04 04:15 | 30.97509 | 121.34846 | 3727 ft | 214 kts | 353° |
| 2026-05-04 04:15 | 30.98975 | 121.34739 | 3544 ft | 207 kts | 354° |
| 2026-05-04 04:15 | 31.00406 | 121.34663 | 3366 ft | 201 kts | 355° |
| 2026-05-04 04:15 | 31.01771 | 121.34585 | 3180 ft | 196 kts | 355° |
| 2026-05-04 04:16 | 31.03140 | 121.34517 | 2951 ft | 193 kts | 355° |
| 2026-05-04 04:16 | 31.04452 | 121.34442 | 2685 ft | 184 kts | 355° |
| 2026-05-04 04:16 | 31.05677 | 121.34381 | 2465 ft | 168 kts | 355° |
| 2026-05-04 04:16 | 31.06811 | 121.34318 | 2240 ft | 156 kts | 355° |
| 2026-05-04 04:17 | 31.07877 | 121.34259 | 2069 ft | 156 kts | 355° |
| 2026-05-04 04:17 | 31.08967 | 121.34204 | 1797 ft | 153 kts | 356° |
| 2026-05-04 04:17 | 31.10028 | 121.34144 | 1605 ft | 156 kts | 355° |
| 2026-05-04 04:17 | 31.11113 | 121.34094 | 1401 ft | 153 kts | 356° |
| 2026-05-04 04:18 | 31.12171 | 121.34032 | 1215 ft | 153 kts | 355° |
| 2026-05-04 04:18 | 31.13239 | 121.33974 | 1009 ft | 153 kts | 356° |
| 2026-05-04 04:18 | 31.14318 | 121.33915 | 817 ft | 152 kts | 355° |
| 2026-05-04 04:18 | 31.15377 | 121.33833 | 627 ft | 152 kts | 357° |
| 2026-05-04 04:19 | 31.16444 | 121.33799 | 430 ft | 154 kts | 359° |
| 2026-05-04 04:19 | 31.17496 | 121.33749 | 216 ft | 152 kts | 357° |
| 2026-05-04 04:19 | 31.18564 | 121.33695 | 31 ft | 152 kts | 357° |
| 2026-05-04 04:19 | 31.19549 | 121.33643 | 15 ft | 128 kts | 357° |
| 2026-05-04 04:20 | 31.20277 | 121.33604 | 15 ft | 80 kts | 356° |
| 2026-05-04 04:20 | 31.20688 | 121.33581 | 15 ft | 43 kts | 357° |
| 2026-05-04 04:20 | 31.20878 | 121.33559 | 15 ft | 20 kts | 347° |
| 2026-05-04 04:20 | 31.20991 | 121.33507 | 15 ft | 15 kts | 331° |
| 2026-05-04 04:21 | 31.21071 | 121.33453 | 15 ft | 8 kts | 317° |
| 2026-05-04 04:21 | 31.21076 | 121.33392 | 15 ft | 7 kts | 232° |
| 2026-05-04 04:21 | 31.21030 | 121.33373 | 15 ft | 7 kts | 180° |
| 2026-05-04 04:21 | 31.20964 | 121.33375 | 15 ft | 14 kts | 177° |
| 2026-05-04 04:22 | 31.20821 | 121.33383 | 15 ft | 26 kts | 177° |
| 2026-05-04 04:22 | 31.20601 | 121.33395 | 15 ft | 36 kts | 178° |
| 2026-05-04 04:22 | 31.20348 | 121.33408 | 15 ft | 34 kts | 177° |
| 2026-05-04 04:22 | 31.20126 | 121.33421 | 15 ft | 29 kts | 177° |
| 2026-05-04 04:23 | 31.19945 | 121.33431 | 15 ft | 20 kts | 177° |
| 2026-05-04 04:23 | 31.19850 | 121.33430 | 15 ft | 9 kts | 203° |
| 2026-05-04 04:23 | 31.19824 | 121.33364 | 15 ft | 9 kts | 265° |
| 2026-05-04 04:23 | 31.19819 | 121.33260 | 15 ft | 16 kts | 267° |
| 2026-05-04 04:24 | 31.19815 | 121.33150 | 15 ft | 10 kts | 268° |
| 2026-05-04 04:24 | 31.19803 | 121.33070 | 15 ft | 9 kts | 227° |
| 2026-05-04 04:24 | 31.19747 | 121.33051 | 15 ft | 6 kts | 210° |
| 2026-05-04 04:24 | 31.19730 | 121.33003 | 15 ft | 6 kts | 270° |
| 2026-05-04 04:25 | 31.19769 | 121.32973 | 15 ft | 7 kts | 357° |
| 2026-05-04 04:25 | 31.19822 | 121.32970 | 15 ft | 7 kts | 356° |
| 2026-05-04 04:25 | 31.19861 | 121.32967 | 15 ft | 3 kts | 350° |
| 2026-05-04 04:25 | 31.19873 | 121.32952 | 15 ft | 2 kts | 295° |
| 2026-05-04 04:26 | 31.19877 | 121.32930 | 15 ft | 3 kts | 274° |
| 2026-05-04 04:26 | 31.19877 | 121.32902 | 15 ft | 3 kts | 268° |
| 2026-05-04 04:26 | 31.19877 | 121.32877 | 15 ft | 2 kts | 268° |
| 2026-05-04 04:26 | 31.19876 | 121.32857 | 15 ft | 1 kts | 268° |
| 2026-05-04 04:27 | 31.19876 | 121.32850 | 15 ft | 0 kts | 268° |
| 2026-05-04 04:27 | 31.19875 | 121.32845 | 15 ft | 0 kts | 268° |